createdAt,value
2022-11-04T00:00:42.772Z,97248.09
2022-11-04T00:02:47.612Z,97251.53
2022-11-04T00:04:52.756Z,97249.88
2022-11-04T00:07:00.810Z,97248.22
2022-11-04T00:09:04.887Z,97247.34
2022-11-04T00:11:22.192Z,97253.59
2022-11-04T00:13:26.981Z,97251.19
2022-11-04T00:15:44.187Z,97241.91
2022-11-04T00:17:48.987Z,97248.47
2022-11-04T00:20:07.562Z,97257.41
2022-11-04T00:22:27.401Z,97261.66
2022-11-04T00:24:44.612Z,97263.56
2022-11-04T00:27:01.799Z,97265.53
2022-11-04T00:29:06.566Z,97266.25
2022-11-04T00:31:24.836Z,97266.88
2022-11-04T00:33:29.920Z,97274.00
2022-11-04T00:35:34.417Z,97279.22
2022-11-04T00:37:43.301Z,97290.47
2022-11-04T00:39:48.090Z,97289.28
2022-11-04T00:41:52.835Z,97295.78
2022-11-04T00:43:58.378Z,97297.22
2022-11-04T00:46:03.118Z,97299.50
2022-11-04T00:48:08.908Z,97291.50
2022-11-04T00:50:13.810Z,97299.53
2022-11-04T00:52:18.644Z,97309.19
2022-11-04T00:54:26.023Z,97302.50
2022-11-04T00:56:30.851Z,97301.16
2022-11-04T00:58:35.582Z,97287.78
2022-11-04T01:00:43.676Z,97296.53
2022-11-04T01:02:48.656Z,97307.34
2022-11-04T01:04:53.504Z,97303.34
2022-11-04T01:06:58.232Z,97304.28
2022-11-04T01:09:05.036Z,97315.16
2022-11-04T01:11:13.354Z,97306.69
2022-11-04T01:13:18.364Z,97306.69
2022-11-04T01:15:23.156Z,97299.81
2022-11-04T01:17:30.645Z,97296.72
2022-11-04T01:19:36.073Z,97300.66
2022-11-04T01:21:42.184Z,97297.22
2022-11-04T01:23:48.364Z,97298.81
2022-11-04T01:25:53.159Z,97304.53
2022-11-04T01:28:00.998Z,97302.31
2022-11-04T01:30:05.894Z,97305.84
2022-11-04T01:32:10.637Z,97309.94
2022-11-04T01:34:15.561Z,97320.72
2022-11-04T01:36:20.546Z,97320.72
2022-11-04T01:38:26.313Z,97326.25
2022-11-04T01:40:32.192Z,97334.69
2022-11-04T01:42:36.947Z,97324.47
2022-11-04T01:44:59.631Z,97327.72
2022-11-04T01:47:04.601Z,97316.16
2022-11-04T01:49:20.986Z,97321.56
2022-11-04T01:51:26.247Z,97327.34
2022-11-04T01:53:32.875Z,97337.50
2022-11-04T01:55:44.034Z,97350.50
2022-11-04T01:57:51.431Z,97352.00
2022-11-04T02:00:02.694Z,97362.56
2022-11-04T02:02:16.476Z,97369.81
2022-11-04T02:04:30.875Z,97367.03
2022-11-04T02:06:35.640Z,97379.94
2022-11-04T02:08:43.619Z,97387.56
2022-11-04T02:10:52.602Z,97385.66
2022-11-04T02:12:55.970Z,97375.28
2022-11-04T02:15:03.516Z,97376.44
2022-11-04T02:17:24.721Z,97370.09
2022-11-04T02:19:47.654Z,97370.09
2022-11-04T02:22:14.266Z,97365.81
2022-11-04T02:24:55.639Z,97359.09
2022-11-04T02:27:29.058Z,97374.09
2022-11-04T02:29:52.898Z,97371.94
2022-11-04T02:32:08.860Z,97374.56
2022-11-04T02:34:21.334Z,97377.34
2022-11-04T02:36:36.286Z,97372.69
2022-11-04T02:38:52.632Z,97364.88
2022-11-04T02:41:03.909Z,97367.75
2022-11-04T02:43:18.531Z,97360.41
2022-11-04T02:45:36.260Z,97359.66
2022-11-04T02:47:48.240Z,97356.22
2022-11-04T02:49:58.602Z,97344.59
2022-11-04T02:52:08.425Z,97349.22
2022-11-04T02:54:17.377Z,97353.06
2022-11-04T02:56:28.112Z,97345.03
2022-11-04T02:58:36.360Z,97343.06
2022-11-04T03:00:46.991Z,97337.59
2022-11-04T03:02:56.537Z,97326.53
2022-11-04T03:05:02.880Z,97332.31
2022-11-04T03:09:19.646Z,97321.00
2022-11-04T03:11:27.566Z,97326.22
2022-11-04T03:13:39.433Z,97327.34
2022-11-04T03:15:53.232Z,97329.50
2022-11-04T03:18:05.046Z,97343.38
2022-11-04T03:20:14.853Z,97348.88
2022-11-04T03:22:22.614Z,97358.09
2022-11-04T03:24:27.971Z,97358.47
2022-11-04T03:26:38.443Z,97356.59
2022-11-04T03:28:50.155Z,97355.94
2022-11-04T03:31:02.815Z,97356.50
2022-11-04T03:33:14.008Z,97357.81
2022-11-04T03:35:19.996Z,97359.22
2022-11-04T03:37:24.828Z,97351.47
2022-11-04T03:39:29.972Z,97355.41
2022-11-04T03:41:39.565Z,97355.47
2022-11-04T03:43:45.185Z,97351.84
2022-11-04T03:45:50.612Z,97350.19
2022-11-04T03:47:58.879Z,97362.09
2022-11-04T03:50:10.158Z,97364.22
2022-11-04T03:52:15.158Z,97360.94
2022-11-04T03:54:20.484Z,97364.59
2022-11-04T03:56:48.336Z,97360.78
2022-11-04T03:59:04.550Z,97362.56
2022-11-04T04:01:23.180Z,97358.56
2022-11-04T04:03:35.035Z,97364.25
2022-11-04T04:05:44.724Z,97357.63
2022-11-04T04:07:53.585Z,97355.09
2022-11-04T04:10:04.113Z,97347.75
2022-11-04T04:12:17.195Z,97344.84
2022-11-04T04:14:44.395Z,97353.72
2022-11-04T04:16:50.715Z,97350.66
2022-11-04T04:19:01.874Z,97355.75
2022-11-04T04:21:10.985Z,97364.16
2022-11-04T04:23:32.979Z,97368.91
2022-11-04T04:25:50.363Z,97357.63
2022-11-04T04:27:56.475Z,97364.06
2022-11-04T04:30:02.922Z,97363.03
2022-11-04T04:32:09.689Z,97361.06
2022-11-04T04:34:17.454Z,97359.38
2022-11-04T04:36:22.321Z,97364.50
2022-11-04T04:38:42.996Z,97360.13
2022-11-04T04:41:03.136Z,97355.09
2022-11-04T04:43:20.737Z,97348.59
2022-11-04T04:45:31.000Z,97349.72
2022-11-04T04:47:43.144Z,97349.41
2022-11-04T04:49:56.139Z,97349.78
2022-11-04T04:52:00.888Z,97338.06
2022-11-04T04:54:05.772Z,97336.19
2022-11-04T04:56:10.571Z,97337.16
2022-11-04T04:58:15.408Z,97331.75
2022-11-04T05:00:23.786Z,97336.31
2022-11-04T05:02:30.040Z,97321.69
2022-11-04T05:04:34.874Z,97326.44
2022-11-04T05:06:42.660Z,97332.75
2022-11-04T05:08:47.416Z,97335.09
2022-11-04T05:10:52.265Z,97326.31
2022-11-04T05:13:09.406Z,97336.84
2022-11-04T05:15:14.287Z,97329.56
2022-11-04T05:17:19.121Z,97318.59
2022-11-04T05:19:26.170Z,97315.44
2022-11-04T05:21:30.941Z,97312.06
2022-11-04T05:23:38.724Z,97305.56
2022-11-04T05:25:44.655Z,97306.94
2022-11-04T05:27:49.630Z,97297.22
2022-11-04T05:29:54.396Z,97294.63
2022-11-04T05:31:59.920Z,97308.94
2022-11-04T05:34:05.955Z,97319.41
2022-11-04T05:36:12.420Z,97321.88
2022-11-04T05:38:17.201Z,97323.63
2022-11-04T05:40:24.638Z,97322.19
2022-11-04T05:42:29.613Z,97326.84
2022-11-04T05:44:34.385Z,97333.78
2022-11-04T05:46:39.287Z,97340.22
2022-11-04T05:48:44.050Z,97370.22
2022-11-04T05:50:48.793Z,97370.16
2022-11-04T05:52:53.570Z,97364.53
2022-11-04T05:54:58.326Z,97342.78
2022-11-04T05:57:05.790Z,97306.94
2022-11-04T05:59:10.505Z,97289.84
2022-11-04T06:01:27.707Z,97306.47
2022-11-04T06:03:32.924Z,97331.25
2022-11-04T06:05:37.481Z,97345.25
2022-11-04T06:07:44.219Z,97348.44
2022-11-04T06:09:49.098Z,97371.34
2022-11-04T06:11:53.806Z,97375.97
2022-11-04T06:14:01.600Z,97381.66
2022-11-04T06:16:06.370Z,97383.41
2022-11-04T06:18:11.373Z,97384.66
2022-11-04T06:20:16.579Z,97389.59
2022-11-04T06:22:22.407Z,97398.19
2022-11-04T06:24:27.196Z,97397.41
2022-11-04T06:26:33.573Z,97394.63
2022-11-04T06:28:39.053Z,97406.91
2022-11-04T06:30:46.485Z,97408.31
2022-11-04T06:32:51.332Z,97416.06
2022-11-04T06:34:56.220Z,97421.09
2022-11-04T06:37:00.971Z,97438.97
2022-11-04T06:39:06.907Z,97442.69
2022-11-04T06:41:14.530Z,97437.88
2022-11-04T06:43:19.335Z,97439.28
2022-11-04T06:45:26.451Z,97434.00
2022-11-04T06:47:33.875Z,97434.31
2022-11-04T06:49:38.603Z,97426.69
2022-11-04T06:51:43.978Z,97424.09
2022-11-04T06:53:48.833Z,97427.16
2022-11-04T06:55:54.727Z,97411.22
2022-11-04T06:57:59.863Z,97415.31
2022-11-04T07:00:04.504Z,97419.38
2022-11-04T07:02:09.588Z,97430.81
2022-11-04T07:04:16.849Z,97430.16
2022-11-04T07:06:22.505Z,97442.44
2022-11-04T07:08:27.603Z,97441.41
2022-11-04T07:10:32.389Z,97442.16
2022-11-04T07:12:37.198Z,97435.75
2022-11-04T07:14:42.001Z,97430.94
2022-11-04T07:16:46.798Z,97430.41
2022-11-04T07:18:52.112Z,97422.88
2022-11-04T07:21:00.100Z,97410.31
2022-11-04T07:23:04.897Z,97393.19
2022-11-04T07:25:10.673Z,97380.44
2022-11-04T07:27:15.485Z,97364.94
2022-11-04T07:29:20.597Z,97366.19
2022-11-04T07:31:27.793Z,97376.22
2022-11-04T07:33:32.917Z,97392.03
2022-11-04T07:35:38.981Z,97381.78
2022-11-04T07:37:46.433Z,97374.03
2022-11-04T07:39:51.188Z,97385.88
2022-11-04T07:41:59.491Z,97383.72
2022-11-04T07:44:05.707Z,97398.31
2022-11-04T07:46:12.366Z,97389.59
2022-11-04T07:48:17.188Z,97374.78
2022-11-04T07:50:22.112Z,97362.53
2022-11-04T07:52:27.091Z,97360.66
2022-11-04T07:54:34.609Z,97374.81
2022-11-04T07:56:39.348Z,97383.66
2022-11-04T07:58:44.785Z,97379.63
2022-11-04T08:00:49.838Z,97373.31
2022-11-04T08:02:54.680Z,97374.41
2022-11-04T08:04:59.459Z,97379.03
2022-11-04T08:07:07.245Z,97386.00
2022-11-04T08:09:12.553Z,97389.94
2022-11-04T08:11:23.393Z,97398.78
2022-11-04T08:13:30.482Z,97401.97
2022-11-04T08:15:35.260Z,97419.72
2022-11-04T08:17:40.273Z,97433.34
2022-11-04T08:19:46.127Z,97438.47
2022-11-04T08:21:50.857Z,97440.22
2022-11-04T08:23:55.855Z,97439.13
2022-11-04T08:26:01.043Z,97443.75
2022-11-04T08:28:08.175Z,97456.13
2022-11-04T08:30:14.494Z,97453.59
2022-11-04T08:32:19.304Z,97465.03
2022-11-04T08:34:25.467Z,97465.56
2022-11-04T08:36:32.172Z,97477.50
2022-11-04T08:38:37.110Z,97477.00
2022-11-04T08:40:42.437Z,97483.91
2022-11-04T08:42:47.051Z,97483.78
2022-11-04T08:44:56.409Z,97479.59
2022-11-04T08:47:01.152Z,97476.47
2022-11-04T08:49:09.676Z,97478.34
2022-11-04T08:51:18.234Z,97493.03
2022-11-04T08:53:23.407Z,97483.56
2022-11-04T08:55:31.156Z,97484.47
2022-11-04T08:57:35.930Z,97480.41
2022-11-04T08:59:40.685Z,97462.44
2022-11-04T09:01:48.787Z,97463.94
2022-11-04T09:03:54.035Z,97472.00
2022-11-04T09:06:00.987Z,97471.59
2022-11-04T09:08:06.112Z,97477.47
2022-11-04T09:10:11.040Z,97470.81
2022-11-04T09:12:15.892Z,97479.66
2022-11-04T09:14:21.327Z,97480.84
2022-11-04T09:16:26.114Z,97478.41
2022-11-04T09:18:33.625Z,97489.69
2022-11-04T09:20:39.386Z,97479.75
2022-11-04T09:22:45.918Z,97467.47
2022-11-04T09:24:50.946Z,97461.91
2022-11-04T09:26:55.839Z,97456.69
2022-11-04T09:29:01.651Z,97440.56
2022-11-04T09:31:13.095Z,97424.06
2022-11-04T09:33:17.837Z,97421.56
2022-11-04T09:35:26.183Z,97413.94
2022-11-04T09:37:30.940Z,97415.53
2022-11-04T09:39:35.858Z,97413.75
2022-11-04T09:42:04.260Z,97407.88
2022-11-04T09:44:20.149Z,97412.91
2022-11-04T09:46:27.877Z,97413.63
2022-11-04T09:48:38.202Z,97416.81
2022-11-04T09:50:50.047Z,97423.72
2022-11-04T09:52:59.718Z,97421.47
2022-11-04T09:55:12.431Z,97420.25
2022-11-04T09:57:20.661Z,97418.22
2022-11-04T09:59:32.435Z,97416.44
2022-11-04T10:01:43.963Z,97418.16
2022-11-04T10:04:02.197Z,97423.44
2022-11-04T10:06:29.014Z,97416.44
2022-11-04T10:08:48.921Z,97418.41
2022-11-04T10:10:59.755Z,97418.22
2022-11-04T10:13:17.432Z,97413.41
2022-11-04T10:15:41.923Z,97404.38
2022-11-04T10:18:01.105Z,97392.66
2022-11-04T10:20:19.732Z,97384.56
2022-11-04T10:22:34.594Z,97386.03
2022-11-04T10:24:45.277Z,97381.56
2022-11-04T10:27:00.382Z,97385.38
2022-11-04T10:29:12.378Z,97376.22
2022-11-04T10:31:19.675Z,97371.88
2022-11-04T10:33:31.898Z,97371.31
2022-11-04T10:35:40.119Z,97371.88
2022-11-04T10:37:49.653Z,97369.56
2022-11-04T10:39:59.854Z,97367.78
2022-11-04T10:42:04.722Z,97374.97
2022-11-04T10:44:18.532Z,97384.34
2022-11-04T10:46:38.872Z,97385.94
2022-11-04T10:48:49.844Z,97390.88
2022-11-04T10:50:58.382Z,97390.97
2022-11-04T10:53:16.648Z,97379.59
2022-11-04T10:55:35.843Z,97389.28
2022-11-04T10:57:41.808Z,97398.50
2022-11-04T10:59:54.510Z,97404.06
2022-11-04T11:02:01.071Z,97407.38
2022-11-04T11:04:10.432Z,97406.88
2022-11-04T11:06:25.164Z,97407.91
2022-11-04T11:08:37.321Z,97397.19
2022-11-04T11:10:54.471Z,97401.41
2022-11-04T11:13:02.493Z,97394.69
2022-11-04T11:15:22.250Z,97382.50
2022-11-04T11:17:38.076Z,97388.63
2022-11-04T11:19:50.887Z,97372.72
2022-11-04T11:21:57.575Z,97371.69
2022-11-04T11:24:17.186Z,97366.72
2022-11-04T11:26:26.840Z,97364.13
2022-11-04T11:28:38.055Z,97363.84
2022-11-04T11:30:59.157Z,97355.50
2022-11-04T11:33:08.613Z,97344.44
2022-11-04T11:35:19.451Z,97332.34
2022-11-04T11:37:27.429Z,97336.84
2022-11-04T11:39:36.177Z,97342.06
2022-11-04T11:41:53.757Z,97342.78
2022-11-04T11:43:59.239Z,97348.59
2022-11-04T11:46:04.402Z,97343.78
2022-11-04T11:48:30.124Z,97342.47
2022-11-04T11:50:35.841Z,97342.94
2022-11-04T11:52:40.986Z,97349.91
2022-11-04T11:54:51.946Z,97352.06
2022-11-04T11:57:13.163Z,97353.47
2022-11-04T12:01:53.773Z,97342.09
2022-11-04T12:09:22.927Z,97317.38
2022-11-04T12:11:40.290Z,97326.69
2022-11-04T12:13:48.650Z,97323.56
2022-11-04T12:16:16.740Z,97329.13
2022-11-04T12:19:03.274Z,97327.19
2022-11-04T12:21:16.874Z,97338.97
2022-11-04T12:23:27.541Z,97337.31
2022-11-04T12:25:38.975Z,97340.25
2022-11-04T12:27:55.165Z,97345.09
2022-11-04T12:30:10.462Z,97352.75
2022-11-04T12:32:27.005Z,97354.19
2022-11-04T12:34:45.515Z,97349.59
2022-11-04T12:37:04.331Z,97351.78
2022-11-04T12:39:22.693Z,97351.59
2022-11-04T12:42:06.393Z,97355.66
2022-11-04T12:44:12.403Z,97355.66
2022-11-04T12:46:26.689Z,97359.81
2022-11-04T12:48:49.844Z,97354.91
2022-11-04T12:51:07.777Z,97355.84
2022-11-04T12:53:38.724Z,97350.25
2022-11-04T12:55:56.487Z,97349.53
2022-11-04T12:58:12.979Z,97359.78
2022-11-04T13:00:25.467Z,97367.50
2022-11-04T13:02:35.048Z,97357.78
2022-11-04T13:04:45.629Z,97364.25
2022-11-04T13:06:56.067Z,97365.09
2022-11-04T13:09:06.032Z,97365.31
2022-11-04T13:11:26.531Z,97366.88
2022-11-04T13:13:35.776Z,97370.09
2022-11-04T13:15:48.667Z,97370.03
2022-11-04T13:17:56.959Z,97368.13
2022-11-04T13:20:06.574Z,97368.94
2022-11-04T13:22:15.591Z,97372.25
2022-11-04T13:24:30.596Z,97372.19
2022-11-04T13:26:36.517Z,97359.78
2022-11-04T13:28:43.295Z,97360.81
2022-11-04T13:30:58.121Z,97356.44
2022-11-04T13:33:11.988Z,97355.09
2022-11-04T13:35:24.435Z,97360.19
2022-11-04T13:37:33.920Z,97355.59
2022-11-04T13:39:46.141Z,97350.22
2022-11-04T13:42:23.351Z,97364.41
2022-11-04T13:44:30.548Z,97350.44
2022-11-04T13:46:38.201Z,97350.44
2022-11-04T13:48:55.424Z,97356.06
2022-11-04T13:51:03.884Z,97357.94
2022-11-04T13:53:12.214Z,97357.31
2022-11-04T13:55:22.687Z,97365.13
2022-11-04T13:57:30.229Z,97366.19
2022-11-04T13:59:36.394Z,97370.84
2022-11-04T14:01:44.054Z,97370.97
2022-11-04T14:03:55.762Z,97376.38
2022-11-04T14:06:10.795Z,97377.84
2022-11-04T14:08:17.009Z,97374.25
2022-11-04T14:10:40.439Z,97372.41
2022-11-04T14:12:47.339Z,97376.66
2022-11-04T14:14:54.457Z,97384.78
2022-11-04T14:17:04.548Z,97395.59
2022-11-04T14:19:45.265Z,97391.34
2022-11-04T14:22:08.420Z,97398.34
2022-11-04T14:24:16.813Z,97394.16
2022-11-04T14:26:24.648Z,97402.78
2022-11-04T14:28:31.378Z,97405.19
2022-11-04T14:30:40.324Z,97417.25
2022-11-04T14:32:47.799Z,97413.41
2022-11-04T14:35:03.505Z,97419.91
2022-11-04T14:37:09.646Z,97419.28
2022-11-04T14:39:27.344Z,97424.22
2022-11-04T14:41:57.614Z,97431.03
2022-11-04T14:44:05.764Z,97423.59
2022-11-04T14:46:11.447Z,97430.75
2022-11-04T14:48:22.957Z,97431.09
2022-11-04T14:50:31.117Z,97430.06
2022-11-04T14:52:39.715Z,97424.47
2022-11-04T14:54:45.299Z,97430.34
2022-11-04T14:56:50.242Z,97430.34
2022-11-04T14:58:59.229Z,97429.03
2022-11-04T15:01:07.742Z,97433.13
2022-11-04T15:05:52.526Z,97439.94
2022-11-04T15:07:58.024Z,97433.03
2022-11-04T15:10:04.747Z,97428.72
2022-11-04T15:12:26.416Z,97430.44
2022-11-04T15:14:31.338Z,97438.53
2022-11-04T15:16:37.118Z,97433.44
2022-11-04T15:18:45.466Z,97443.78
2022-11-04T15:20:52.781Z,97443.69
2022-11-04T15:22:58.730Z,97439.78
2022-11-04T15:25:07.093Z,97443.91
2022-11-04T15:27:18.497Z,97444.31
2022-11-04T15:29:26.914Z,97449.81
2022-11-04T15:31:33.498Z,97449.44
2022-11-04T15:33:45.415Z,97452.81
2022-11-04T15:35:50.676Z,97453.75
2022-11-04T15:37:56.451Z,97455.69
2022-11-04T15:40:01.910Z,97464.38
2022-11-04T15:42:21.691Z,97459.50
2022-11-04T15:44:29.108Z,97465.59
2022-11-04T15:46:34.073Z,97463.91
2022-11-04T15:48:40.199Z,97464.66
2022-11-04T15:50:47.795Z,97465.47
2022-11-04T15:52:56.421Z,97470.69
2022-11-04T15:55:03.463Z,97476.03
2022-11-04T15:57:16.661Z,97473.31
2022-11-04T15:59:27.218Z,97472.22
2022-11-04T16:01:33.039Z,97469.22
2022-11-04T16:03:37.975Z,97469.94
2022-11-04T16:05:43.661Z,97479.34
2022-11-04T16:07:52.709Z,97468.63
2022-11-04T16:09:58.161Z,97465.91
2022-11-04T16:12:17.383Z,97468.25
2022-11-04T16:14:26.624Z,97467.41
2022-11-04T16:16:31.489Z,97469.28
2022-11-04T16:18:39.435Z,97470.31
2022-11-04T16:20:48.633Z,97467.69
2022-11-04T16:23:02.229Z,97468.06
2022-11-04T16:25:11.077Z,97475.53
2022-11-04T16:27:21.022Z,97475.66
2022-11-04T16:29:29.003Z,97466.78
2022-11-04T16:31:37.406Z,97477.88
2022-11-04T16:33:44.937Z,97472.66
2022-11-04T16:35:49.748Z,97474.81
2022-11-04T16:37:55.998Z,97476.03
2022-11-04T16:40:05.144Z,97476.31
2022-11-04T16:42:10.109Z,97485.16
2022-11-04T16:44:21.969Z,97483.75
2022-11-04T16:46:27.062Z,97488.59
2022-11-04T16:48:31.564Z,97495.31
2022-11-04T16:50:36.321Z,97497.28
2022-11-04T16:52:44.328Z,97500.78
2022-11-04T16:54:50.467Z,97506.84
2022-11-04T16:56:58.416Z,97516.53
2022-11-04T16:59:06.097Z,97517.63
2022-11-04T17:01:13.074Z,97529.00
2022-11-04T17:03:21.597Z,97524.56
2022-11-04T17:05:26.548Z,97531.38
2022-11-04T17:07:51.707Z,97532.09
2022-11-04T17:09:56.317Z,97535.44
2022-11-04T17:12:03.975Z,97548.56
2022-11-04T17:14:08.822Z,97553.13
2022-11-04T17:16:18.768Z,97560.31
2022-11-04T17:18:23.603Z,97562.41
2022-11-04T17:20:30.035Z,97562.78
2022-11-04T17:22:35.848Z,97577.56
2022-11-04T17:24:40.704Z,97569.84
2022-11-04T17:26:46.177Z,97578.31
2022-11-04T17:28:53.559Z,97584.19
2022-11-04T17:30:58.417Z,97585.69
2022-11-04T17:33:06.587Z,97585.63
2022-11-04T17:35:12.587Z,97583.53
2022-11-04T17:37:17.453Z,97582.47
2022-11-04T17:39:22.964Z,97589.47
2022-11-04T17:41:40.296Z,97580.75
2022-11-04T17:43:58.573Z,97592.75
2022-11-04T17:46:18.230Z,97591.00
2022-11-04T17:48:23.130Z,97592.91
2022-11-04T17:50:28.135Z,97593.84
2022-11-04T17:52:33.132Z,97595.63
2022-11-04T17:54:38.127Z,97591.69
2022-11-04T17:56:43.715Z,97598.66
2022-11-04T17:58:48.594Z,97604.03
2022-11-04T18:00:53.516Z,97601.78
2022-11-04T18:03:00.961Z,97609.28
2022-11-04T18:05:05.800Z,97617.06
2022-11-04T18:07:10.689Z,97621.59
2022-11-04T18:09:15.936Z,97618.81
2022-11-04T18:11:32.761Z,97619.50
2022-11-04T18:13:38.229Z,97621.16
2022-11-04T18:15:42.960Z,97621.44
2022-11-04T18:17:50.106Z,97618.00
2022-11-04T18:19:57.505Z,97612.50
2022-11-04T18:22:02.469Z,97618.00
2022-11-04T18:24:07.662Z,97618.13
2022-11-04T18:26:13.146Z,97622.63
2022-11-04T18:28:17.910Z,97619.00
2022-11-04T18:30:23.198Z,97619.00
2022-11-04T18:32:27.812Z,97624.56
2022-11-04T18:34:32.620Z,97625.81
2022-11-04T18:36:40.431Z,97623.19
2022-11-04T18:38:48.187Z,97629.91
2022-11-04T18:40:52.930Z,97627.22
2022-11-04T18:42:57.702Z,97630.84
2022-11-04T18:45:02.572Z,97628.41
2022-11-04T18:47:08.683Z,97638.00
2022-11-04T18:49:14.353Z,97633.63
2022-11-04T18:51:22.071Z,97637.00
2022-11-04T18:53:29.461Z,97639.44
2022-11-04T18:55:35.618Z,97636.72
2022-11-04T18:57:40.409Z,97628.25
2022-11-04T18:59:47.640Z,97631.97
2022-11-04T19:01:53.476Z,97640.13
2022-11-04T19:03:58.674Z,97649.59
2022-11-04T19:06:07.783Z,97654.81
2022-11-04T19:08:12.788Z,97657.25
2022-11-04T19:10:20.411Z,97658.75
2022-11-04T19:12:37.621Z,97657.56
2022-11-04T19:14:45.443Z,97661.78
2022-11-04T19:16:50.326Z,97670.25
2022-11-04T19:18:55.442Z,97669.25
2022-11-04T19:21:00.008Z,97671.97
2022-11-04T19:23:05.059Z,97678.00
2022-11-04T19:25:11.193Z,97678.00
2022-11-04T19:27:19.694Z,97678.19
2022-11-04T19:29:24.542Z,97682.03
2022-11-04T19:31:31.314Z,97685.66
2022-11-04T19:33:36.209Z,97691.56
2022-11-04T19:35:41.563Z,97689.53
2022-11-04T19:37:46.344Z,97686.78
2022-11-04T19:39:51.090Z,97691.97
2022-11-04T19:42:08.346Z,97699.69
2022-11-04T19:44:17.368Z,97696.03
2022-11-04T19:46:22.180Z,97699.34
2022-11-04T19:48:26.910Z,97700.19
2022-11-04T19:50:31.741Z,97706.28
2022-11-04T19:52:36.466Z,97713.16
2022-11-04T19:54:41.398Z,97712.31
2022-11-04T19:56:46.145Z,97717.53
2022-11-04T19:58:51.117Z,97718.38
2022-11-04T20:00:58.777Z,97723.94
2022-11-04T20:03:03.654Z,97729.63
2022-11-04T20:05:10.166Z,97731.41
2022-11-04T20:07:15.061Z,97735.53
2022-11-04T20:09:20.415Z,97730.06
2022-11-04T20:11:26.200Z,97732.25
2022-11-04T20:13:43.416Z,97735.69
2022-11-04T20:15:48.181Z,97739.47
2022-11-04T20:17:55.489Z,97746.50
2022-11-04T20:20:00.340Z,97749.88
2022-11-04T20:22:05.905Z,97755.94
2022-11-04T20:24:13.695Z,97771.72
2022-11-04T20:26:22.939Z,97780.84
2022-11-04T20:28:27.655Z,97800.94
2022-11-04T20:30:32.464Z,97804.16
2022-11-04T20:32:37.257Z,97809.84
2022-11-04T20:34:44.606Z,97822.59
2022-11-04T20:36:49.452Z,97847.13
2022-11-04T20:38:59.177Z,97860.69
2022-11-04T20:41:08.515Z,97867.19
2022-11-04T20:43:13.280Z,97886.44
2022-11-04T20:45:19.456Z,97888.59
2022-11-04T20:47:26.979Z,97893.25
2022-11-04T20:49:31.770Z,97897.06
2022-11-04T20:51:43.084Z,97891.44
2022-11-04T20:53:48.293Z,97890.22
2022-11-04T20:55:53.089Z,97894.16
2022-11-04T20:57:57.895Z,97893.88
2022-11-04T21:00:02.822Z,97897.31
2022-11-04T21:02:07.699Z,97901.91
2022-11-04T21:04:15.656Z,97908.31
2022-11-04T21:06:20.507Z,97908.50
2022-11-04T21:08:31.283Z,97925.66
2022-11-04T21:10:38.212Z,97916.88
2022-11-04T21:12:42.935Z,97907.19
2022-11-04T21:14:47.756Z,97917.88
2022-11-04T21:16:52.670Z,97909.41
2022-11-04T21:18:57.969Z,97892.56
2022-11-04T21:21:06.550Z,97893.91
2022-11-04T21:23:11.781Z,97902.19
2022-11-04T21:25:19.305Z,97906.34
2022-11-04T21:27:25.287Z,97909.06
2022-11-04T21:29:30.174Z,97914.16
2022-11-04T21:31:36.761Z,97906.09
2022-11-04T21:33:41.921Z,97909.38
2022-11-04T21:35:48.043Z,97908.69
2022-11-04T21:37:52.786Z,97901.97
2022-11-04T21:39:57.736Z,97900.97
2022-11-04T21:42:05.115Z,97910.22
2022-11-04T21:44:11.345Z,97911.94
2022-11-04T21:46:18.275Z,97910.94
2022-11-04T21:48:23.472Z,97912.63
2022-11-04T21:50:31.585Z,97916.84
2022-11-04T21:52:36.448Z,97905.63
2022-11-04T21:54:43.622Z,97912.63
2022-11-04T21:56:48.454Z,97910.94
2022-11-04T21:58:57.438Z,97916.16
2022-11-04T22:01:02.781Z,97906.03
2022-11-04T22:03:07.399Z,97907.19
2022-11-04T22:05:13.108Z,97915.28
2022-11-04T22:07:37.887Z,97910.97
2022-11-04T22:09:51.622Z,97922.16
2022-11-04T22:11:56.382Z,97910.78
2022-11-04T22:14:05.552Z,97917.66
2022-11-04T22:16:14.617Z,97908.94
2022-11-04T22:18:19.551Z,97909.78
2022-11-04T22:20:26.565Z,97909.00
2022-11-04T22:22:31.378Z,97911.47
2022-11-04T22:24:36.113Z,97917.59
2022-11-04T22:26:41.905Z,97919.34
2022-11-04T22:28:46.921Z,97919.34
2022-11-04T22:30:54.384Z,97916.75
2022-11-04T22:33:00.027Z,97914.22
2022-11-04T22:35:04.836Z,97912.53
2022-11-04T22:37:09.612Z,97915.34
2022-11-04T22:39:16.894Z,97913.72
2022-11-04T22:41:26.652Z,97915.50
2022-11-04T22:43:32.284Z,97915.50
2022-11-04T22:45:37.293Z,97919.88
2022-11-04T22:47:44.715Z,97915.50
2022-11-04T22:49:49.612Z,97911.28
2022-11-04T22:51:54.515Z,97910.44
2022-11-04T22:54:04.817Z,97916.56
2022-11-04T22:56:15.125Z,97913.03
2022-11-04T22:58:20.426Z,97910.28
2022-11-04T23:00:27.211Z,97914.50
2022-11-04T23:02:36.794Z,97908.38
2022-11-04T23:04:47.463Z,97915.13
2022-11-04T23:06:52.221Z,97911.56
2022-11-04T23:09:00.373Z,97904.47
2022-11-04T23:11:21.286Z,97907.09
2022-11-04T23:13:38.497Z,97908.94
2022-11-04T23:15:56.161Z,97913.44
2022-11-04T23:18:13.402Z,97922.97
2022-11-04T23:20:23.185Z,97928.91
2022-11-04T23:22:46.115Z,97929.06
2022-11-04T23:25:03.423Z,97932.69
2022-11-04T23:27:08.403Z,97928.44
2022-11-04T23:29:25.561Z,97930.19
2022-11-04T23:31:30.412Z,97943.09
2022-11-04T23:33:47.672Z,97933.56
2022-11-04T23:36:07.629Z,97940.50
2022-11-04T23:38:13.201Z,97937.31
2022-11-04T23:40:18.032Z,97939.91
2022-11-04T23:42:22.708Z,97948.53
2022-11-04T23:44:39.912Z,97952.13
2022-11-04T23:46:59.703Z,97949.53
2022-11-04T23:49:22.595Z,97953.81
2022-11-04T23:51:42.668Z,97958.81
2022-11-04T23:54:00.513Z,97960.47
2022-11-04T23:56:18.245Z,97954.59
2022-11-04T23:58:35.533Z,97947.47
